createdAt,value
2022-11-03T00:00:04.000Z,5.999999999999998
2022-11-03T00:00:24.000Z,5.999999999999998
2022-11-03T00:00:54.000Z,5.999999999999998
2022-11-03T00:01:29.000Z,6.111111111111111
2022-11-03T00:01:50.000Z,6.111111111111111
2022-11-03T00:02:12.000Z,5.999999999999998
2022-11-03T00:02:38.000Z,5.999999999999998
2022-11-03T00:03:05.000Z,5.999999999999998
2022-11-03T00:03:32.000Z,5.999999999999998
2022-11-03T00:03:58.000Z,5.999999999999998
2022-11-03T00:04:23.000Z,5.999999999999998
2022-11-03T00:04:49.000Z,5.999999999999998
2022-11-03T00:05:09.000Z,5.999999999999998
2022-11-03T00:05:44.000Z,5.999999999999998
2022-11-03T00:06:14.000Z,6.111111111111111
2022-11-03T00:06:49.000Z,6.111111111111111
2022-11-03T00:07:19.000Z,6.111111111111111
2022-11-03T00:07:49.000Z,6.111111111111111
2022-11-03T00:08:04.000Z,6.111111111111111
2022-11-03T00:08:39.000Z,5.999999999999998
2022-11-03T00:08:54.000Z,5.999999999999998
2022-11-03T00:09:29.000Z,5.999999999999998
2022-11-03T00:09:51.000Z,6.222222222222224
2022-11-03T00:10:14.000Z,6.222222222222224
2022-11-03T00:10:49.000Z,6.111111111111111
2022-11-03T00:11:28.000Z,6.111111111111111
2022-11-03T00:11:58.000Z,6.111111111111111
2022-11-03T00:12:23.000Z,5.888888888888889
2022-11-03T00:12:49.000Z,5.999999999999998
2022-11-03T00:13:18.000Z,5.999999999999998
2022-11-03T00:13:45.000Z,6.111111111111111
2022-11-03T00:14:12.000Z,6.111111111111111
2022-11-03T00:14:38.000Z,6.111111111111111
2022-11-03T00:15:05.000Z,6.277777777777776
2022-11-03T00:15:33.000Z,6.222222222222224
2022-11-03T00:15:49.000Z,5.999999999999998
2022-11-03T00:16:24.000Z,6.222222222222224
2022-11-03T00:16:54.000Z,5.999999999999998
2022-11-03T00:17:29.000Z,6.111111111111111
2022-11-03T00:17:51.000Z,6.111111111111111
2022-11-03T00:18:14.000Z,6.277777777777776
2022-11-03T00:18:49.000Z,6.277777777777776
2022-11-03T00:19:19.000Z,6.277777777777776
2022-11-03T00:19:49.000Z,6.111111111111111
2022-11-03T00:20:24.000Z,6.277777777777776
2022-11-03T00:20:54.000Z,6.111111111111111
2022-11-03T00:21:29.000Z,6.222222222222224
2022-11-03T00:21:50.000Z,6.222222222222224
2022-11-03T00:22:12.000Z,6.388888888888889
2022-11-03T00:22:38.000Z,6.388888888888889
2022-11-03T00:23:05.000Z,6.388888888888889
2022-11-03T00:23:32.000Z,6.388888888888889
2022-11-03T00:23:58.000Z,6.388888888888889
2022-11-03T00:24:23.000Z,6.222222222222224
2022-11-03T00:24:49.000Z,6.388888888888889
2022-11-03T00:25:18.000Z,6.388888888888889
2022-11-03T00:25:45.000Z,6.388888888888889
2022-11-03T00:26:12.000Z,6.388888888888889
2022-11-03T00:26:29.000Z,6.388888888888889
2022-11-03T00:26:49.000Z,6.500000000000002
2022-11-03T00:27:19.000Z,6.500000000000002
2022-11-03T00:27:49.000Z,6.500000000000002
2022-11-03T00:28:04.000Z,6.500000000000002
2022-11-03T00:28:24.000Z,6.500000000000002
2022-11-03T00:28:54.000Z,6.500000000000002
2022-11-03T00:29:29.000Z,6.277777777777776
2022-11-03T00:29:50.000Z,6.277777777777776
2022-11-03T00:30:14.000Z,6.388888888888889
2022-11-03T00:30:49.000Z,6.388888888888889
2022-11-03T00:31:19.000Z,6.388888888888889
2022-11-03T00:31:49.000Z,6.388888888888889
2022-11-03T00:32:04.000Z,6.611111111111111
2022-11-03T00:32:24.000Z,6.611111111111111
2022-11-03T00:32:55.000Z,6.611111111111111
2022-11-03T00:33:24.000Z,6.611111111111111
2022-11-03T00:33:53.000Z,6.611111111111111
2022-11-03T00:34:16.000Z,6.500000000000002
2022-11-03T00:34:44.000Z,6.500000000000002
2022-11-03T00:35:19.000Z,6.500000000000002
2022-11-03T00:35:58.000Z,6.500000000000002
2022-11-03T00:36:23.000Z,6.500000000000002
2022-11-03T00:36:49.000Z,6.500000000000002
2022-11-03T00:37:09.000Z,6.500000000000002
2022-11-03T00:37:44.000Z,6.500000000000002
2022-11-03T00:38:14.000Z,6.500000000000002
2022-11-03T00:38:49.000Z,6.611111111111111
2022-11-03T00:39:19.000Z,6.611111111111111
2022-11-03T00:39:49.000Z,6.611111111111111
2022-11-03T00:40:04.000Z,6.611111111111111
2022-11-03T00:40:39.000Z,6.722222222222223
2022-11-03T00:40:54.000Z,6.722222222222223
2022-11-03T00:41:29.000Z,6.722222222222223
2022-11-03T00:41:51.000Z,6.722222222222223
2022-11-03T00:42:14.000Z,6.611111111111111
2022-11-03T00:42:49.000Z,6.611111111111111
2022-11-03T00:43:19.000Z,6.611111111111111
2022-11-03T00:43:54.000Z,6.611111111111111
2022-11-03T00:44:24.000Z,6.611111111111111
2022-11-03T00:44:54.000Z,6.611111111111111
2022-11-03T00:45:29.000Z,6.611111111111111
2022-11-03T00:45:50.000Z,6.611111111111111
2022-11-03T00:46:14.000Z,6.611111111111111
2022-11-03T00:46:49.000Z,6.611111111111111
2022-11-03T00:47:19.000Z,6.722222222222223
2022-11-03T00:47:49.000Z,6.722222222222223
2022-11-03T00:48:24.000Z,6.722222222222223
2022-11-03T00:48:54.000Z,6.722222222222223
2022-11-03T00:49:29.000Z,6.722222222222223
2022-11-03T00:49:50.000Z,6.722222222222223
2022-11-03T00:50:14.000Z,6.722222222222223
2022-11-03T00:50:49.000Z,6.722222222222223
2022-11-03T00:51:19.000Z,6.722222222222223
2022-11-03T00:51:49.000Z,6.722222222222223
2022-11-03T00:52:24.000Z,6.722222222222223
2022-11-03T00:52:54.000Z,6.722222222222223
2022-11-03T00:53:29.000Z,6.722222222222223
2022-11-03T00:53:50.000Z,6.722222222222223
2022-11-03T00:54:14.000Z,6.722222222222223
2022-11-03T00:54:49.000Z,6.7777777777777795
2022-11-03T00:55:19.000Z,6.7777777777777795
2022-11-03T00:55:49.000Z,6.7777777777777795
2022-11-03T00:56:24.000Z,6.7777777777777795
2022-11-03T00:56:54.000Z,6.7777777777777795
2022-11-03T00:57:38.000Z,6.7777777777777795
2022-11-03T00:58:12.000Z,6.7777777777777795
2022-11-03T00:58:29.000Z,6.7777777777777795
2022-11-03T00:58:55.000Z,6.7777777777777795
2022-11-03T00:59:19.000Z,6.7777777777777795
2022-11-03T00:59:49.000Z,6.7777777777777795
2022-11-03T01:00:24.000Z,6.7777777777777795
2022-11-03T01:00:54.000Z,6.888888888888888
2022-11-03T01:01:29.000Z,6.888888888888888
2022-11-03T01:01:50.000Z,6.888888888888888
2022-11-03T01:02:14.000Z,6.7777777777777795
2022-11-03T01:02:49.000Z,6.7777777777777795
2022-11-03T01:03:19.000Z,6.7777777777777795
2022-11-03T01:03:49.000Z,6.7777777777777795
2022-11-03T01:04:24.000Z,6.888888888888888
2022-11-03T01:04:55.000Z,6.888888888888888
2022-11-03T01:05:24.000Z,6.7777777777777795
2022-11-03T01:05:53.000Z,6.7777777777777795
2022-11-03T01:06:16.000Z,6.7777777777777795
2022-11-03T01:06:49.000Z,6.7777777777777795
2022-11-03T01:07:19.000Z,6.7777777777777795
2022-11-03T01:07:49.000Z,6.888888888888888
2022-11-03T01:08:24.000Z,6.888888888888888
2022-11-03T01:08:54.000Z,6.888888888888888
2022-11-03T01:09:29.000Z,6.888888888888888
2022-11-03T01:09:50.000Z,6.888888888888888
2022-11-03T01:10:14.000Z,6.888888888888888
2022-11-03T01:10:49.000Z,6.888888888888888
2022-11-03T01:11:19.000Z,6.888888888888888
2022-11-03T01:11:49.000Z,7.000000000000001
2022-11-03T01:12:24.000Z,7.000000000000001
2022-11-03T01:12:55.000Z,7.000000000000001
2022-11-03T01:13:29.000Z,7.000000000000001
2022-11-03T01:13:50.000Z,7.000000000000001
2022-11-03T01:14:14.000Z,7.000000000000001
2022-11-03T01:14:49.000Z,7.000000000000001
2022-11-03T01:15:19.000Z,7.000000000000001
2022-11-03T01:15:49.000Z,7.000000000000001
2022-11-03T01:16:24.000Z,7.000000000000001
2022-11-03T01:16:54.000Z,7.000000000000001
2022-11-03T01:17:29.000Z,7.000000000000001
2022-11-03T01:17:51.000Z,7.000000000000001
2022-11-03T01:18:14.000Z,7.000000000000001
2022-11-03T01:18:49.000Z,7.000000000000001
2022-11-03T01:19:19.000Z,7.000000000000001
2022-11-03T01:19:54.000Z,7.000000000000001
2022-11-03T01:20:24.000Z,7.000000000000001
2022-11-03T01:20:54.000Z,7.000000000000001
2022-11-03T01:21:29.000Z,7.000000000000001
2022-11-03T01:21:50.000Z,7.000000000000001
2022-11-03T01:22:14.000Z,7.000000000000001
2022-11-03T01:22:49.000Z,7.11111111111111
2022-11-03T01:23:19.000Z,7.000000000000001
2022-11-03T01:23:49.000Z,7.000000000000001
2022-11-03T01:24:24.000Z,7.000000000000001
2022-11-03T01:24:54.000Z,7.222222222222222
2022-11-03T01:25:29.000Z,7.222222222222222
2022-11-03T01:25:50.000Z,7.222222222222222
2022-11-03T01:26:14.000Z,7.222222222222222
2022-11-03T01:26:49.000Z,7.222222222222222
2022-11-03T01:27:19.000Z,7.222222222222222
2022-11-03T01:27:49.000Z,7.000000000000001
2022-11-03T01:28:24.000Z,7.000000000000001
2022-11-03T01:28:54.000Z,7.000000000000001
2022-11-03T01:29:29.000Z,7.222222222222222
2022-11-03T01:29:51.000Z,7.000000000000001
2022-11-03T01:30:14.000Z,7.000000000000001
2022-11-03T01:30:49.000Z,7.000000000000001
2022-11-03T01:31:19.000Z,7.000000000000001
2022-11-03T01:31:49.000Z,7.000000000000001
2022-11-03T01:32:24.000Z,7.000000000000001
2022-11-03T01:32:54.000Z,7.000000000000001
2022-11-03T01:33:29.000Z,7.222222222222222
2022-11-03T01:33:52.000Z,7.222222222222222
2022-11-03T01:34:12.000Z,7.222222222222222
2022-11-03T01:34:29.000Z,7.222222222222222
2022-11-03T01:34:49.000Z,7.222222222222222
2022-11-03T01:35:19.000Z,7.222222222222222
2022-11-03T01:35:50.000Z,7.11111111111111
2022-11-03T01:36:24.000Z,7.11111111111111
2022-11-03T01:36:54.000Z,7.11111111111111
2022-11-03T01:37:29.000Z,7.11111111111111
2022-11-03T01:37:50.000Z,7.11111111111111
2022-11-03T01:38:14.000Z,7.11111111111111
2022-11-03T01:38:49.000Z,7.11111111111111
2022-11-03T01:39:19.000Z,7.11111111111111
2022-11-03T01:39:49.000Z,7.000000000000001
2022-11-03T01:40:04.000Z,7.000000000000001
2022-11-03T01:40:24.000Z,7.000000000000001
2022-11-03T01:40:54.000Z,7.000000000000001
2022-11-03T01:41:29.000Z,7.000000000000001
2022-11-03T01:41:50.000Z,7.000000000000001
2022-11-03T01:42:14.000Z,7.000000000000001
2022-11-03T01:42:49.000Z,7.000000000000001
2022-11-03T01:43:19.000Z,7.000000000000001
2022-11-03T01:43:49.000Z,7.000000000000001
2022-11-03T01:44:24.000Z,7.000000000000001
2022-11-03T01:44:54.000Z,7.000000000000001
2022-11-03T01:45:29.000Z,7.000000000000001
2022-11-03T01:45:51.000Z,7.000000000000001
2022-11-03T01:46:14.000Z,7.222222222222222
2022-11-03T01:46:49.000Z,7.000000000000001
2022-11-03T01:47:16.000Z,7.000000000000001
2022-11-03T01:47:43.000Z,7.000000000000001
2022-11-03T01:48:17.000Z,7.000000000000001
2022-11-03T01:48:39.000Z,7.000000000000001
2022-11-03T01:49:09.000Z,7.000000000000001
2022-11-03T01:49:44.000Z,7.000000000000001
2022-11-03T01:50:14.000Z,7.222222222222222
2022-11-03T01:50:49.000Z,7.000000000000001
2022-11-03T01:51:19.000Z,7.222222222222222
2022-11-03T01:51:49.000Z,7.222222222222222
2022-11-03T01:52:24.000Z,7.222222222222222
2022-11-03T01:52:54.000Z,7.222222222222222
2022-11-03T01:53:29.000Z,7.11111111111111
2022-11-03T01:53:51.000Z,7.11111111111111
2022-11-03T01:54:14.000Z,7.11111111111111
2022-11-03T01:54:58.000Z,7.222222222222222
2022-11-03T01:55:21.000Z,7.000000000000001
2022-11-03T01:55:48.000Z,7.000000000000001
2022-11-03T01:56:20.000Z,7.11111111111111
2022-11-03T01:56:49.000Z,7.11111111111111
2022-11-03T01:57:18.000Z,7.11111111111111
2022-11-03T01:57:45.000Z,7.11111111111111
2022-11-03T01:58:12.000Z,7.11111111111111
2022-11-03T01:58:38.000Z,7.11111111111111
2022-11-03T01:59:05.000Z,7.11111111111111
2022-11-03T01:59:34.000Z,7.11111111111111
2022-11-03T02:00:09.000Z,7.277777777777778
2022-11-03T02:00:39.000Z,7.11111111111111
2022-11-03T02:01:09.000Z,7.222222222222222
2022-11-03T02:01:44.000Z,7.222222222222222
2022-11-03T02:02:14.000Z,7.222222222222222
2022-11-03T02:02:49.000Z,7.222222222222222
2022-11-03T02:03:19.000Z,7.222222222222222
2022-11-03T02:03:49.000Z,7.222222222222222
2022-11-03T02:04:24.000Z,7.222222222222222
2022-11-03T02:04:54.000Z,7.222222222222222
2022-11-03T02:05:29.000Z,7.222222222222222
2022-11-03T02:05:53.000Z,7.222222222222222
2022-11-03T02:06:14.000Z,7.222222222222222
2022-11-03T02:06:49.000Z,7.222222222222222
2022-11-03T02:07:19.000Z,7.222222222222222
2022-11-03T02:07:49.000Z,7.222222222222222
2022-11-03T02:08:24.000Z,7.222222222222222
2022-11-03T02:08:54.000Z,7.222222222222222
2022-11-03T02:09:29.000Z,7.222222222222222
2022-11-03T02:09:51.000Z,7.222222222222222
2022-11-03T02:10:14.000Z,7.222222222222222
2022-11-03T02:10:49.000Z,7.222222222222222
2022-11-03T02:11:19.000Z,7.222222222222222
2022-11-03T02:11:50.000Z,7.222222222222222
2022-11-03T02:12:24.000Z,7.222222222222222
2022-11-03T02:12:49.000Z,7.222222222222222
2022-11-03T02:13:18.000Z,7.222222222222222
2022-11-03T02:13:45.000Z,7.222222222222222
2022-11-03T02:14:12.000Z,7.222222222222222
2022-11-03T02:14:38.000Z,7.222222222222222
2022-11-03T02:15:05.000Z,7.222222222222222
2022-11-03T02:15:32.000Z,7.222222222222222
2022-11-03T02:15:58.000Z,7.222222222222222
2022-11-03T02:16:24.000Z,7.222222222222222
2022-11-03T02:16:49.000Z,7.222222222222222
2022-11-03T02:17:18.000Z,7.3888888888888875
2022-11-03T02:17:45.000Z,7.3888888888888875
2022-11-03T02:18:12.000Z,7.222222222222222
2022-11-03T02:18:49.000Z,7.277777777777778
2022-11-03T02:19:28.000Z,7.277777777777778
2022-11-03T02:19:58.000Z,7.277777777777778
2022-11-03T02:20:23.000Z,7.277777777777778
2022-11-03T02:20:49.000Z,7.277777777777778
2022-11-03T02:21:09.000Z,7.277777777777778
2022-11-03T02:21:44.000Z,7.277777777777778
2022-11-03T02:22:14.000Z,7.3888888888888875
2022-11-03T02:22:49.000Z,7.3888888888888875
2022-11-03T02:23:19.000Z,7.3888888888888875
2022-11-03T02:23:49.000Z,7.3888888888888875
2022-11-03T02:24:24.000Z,7.3888888888888875
2022-11-03T02:24:54.000Z,7.3888888888888875
2022-11-03T02:25:29.000Z,7.222222222222222
2022-11-03T02:25:51.000Z,7.3888888888888875
2022-11-03T02:26:14.000Z,7.3888888888888875
2022-11-03T02:26:49.000Z,7.3888888888888875
2022-11-03T02:27:19.000Z,7.222222222222222
2022-11-03T02:27:49.000Z,7.3888888888888875
2022-11-03T02:28:24.000Z,7.3888888888888875
2022-11-03T02:28:54.000Z,7.3888888888888875
2022-11-03T02:29:29.000Z,7.3888888888888875
2022-11-03T02:29:52.000Z,7.3888888888888875
2022-11-03T02:30:14.000Z,7.3888888888888875
2022-11-03T02:30:49.000Z,7.3888888888888875
2022-11-03T02:31:19.000Z,7.3888888888888875
2022-11-03T02:31:49.000Z,7.3888888888888875
2022-11-03T02:32:24.000Z,7.3888888888888875
2022-11-03T02:32:54.000Z,7.3888888888888875
2022-11-03T02:33:29.000Z,7.277777777777778
2022-11-03T02:33:50.000Z,7.277777777777778
2022-11-03T02:34:12.000Z,7.277777777777778
2022-11-03T02:34:38.000Z,7.277777777777778
2022-11-03T02:35:05.000Z,7.277777777777778
2022-11-03T02:35:32.000Z,7.277777777777778
2022-11-03T02:35:58.000Z,7.277777777777778
2022-11-03T02:36:23.000Z,7.277777777777778
2022-11-03T02:36:49.000Z,7.277777777777778
2022-11-03T02:37:18.000Z,7.277777777777778
2022-11-03T02:37:45.000Z,7.277777777777778
2022-11-03T02:38:12.000Z,7.277777777777778
2022-11-03T02:38:38.000Z,7.277777777777778
2022-11-03T02:39:05.000Z,7.277777777777778
2022-11-03T02:39:32.000Z,7.277777777777778
2022-11-03T02:39:58.000Z,7.277777777777778
2022-11-03T02:40:25.000Z,7.277777777777778
2022-11-03T02:40:54.000Z,7.277777777777778
2022-11-03T02:41:29.000Z,7.277777777777778
2022-11-03T02:41:50.000Z,7.5
2022-11-03T02:42:14.000Z,7.277777777777778
2022-11-03T02:42:49.000Z,7.277777777777778
2022-11-03T02:43:19.000Z,7.277777777777778
2022-11-03T02:43:49.000Z,7.3888888888888875
2022-11-03T02:44:24.000Z,7.3888888888888875
2022-11-03T02:44:54.000Z,7.3888888888888875
2022-11-03T02:45:29.000Z,7.3888888888888875
2022-11-03T02:45:50.000Z,7.3888888888888875
2022-11-03T02:46:14.000Z,7.3888888888888875
2022-11-03T02:46:58.000Z,7.277777777777778
2022-11-03T02:47:19.000Z,7.277777777777778
2022-11-03T02:47:49.000Z,7.277777777777778
2022-11-03T02:48:24.000Z,7.277777777777778
2022-11-03T02:48:54.000Z,7.3888888888888875
2022-11-03T02:49:29.000Z,7.3888888888888875
2022-11-03T02:49:50.000Z,7.3888888888888875
2022-11-03T02:50:14.000Z,7.3888888888888875
2022-11-03T02:50:49.000Z,7.3888888888888875
2022-11-03T02:51:19.000Z,7.3888888888888875
2022-11-03T02:51:49.000Z,7.5
2022-11-03T02:52:24.000Z,7.5
2022-11-03T02:52:54.000Z,7.5
2022-11-03T02:53:38.000Z,7.5
2022-11-03T02:54:08.000Z,7.5
2022-11-03T02:54:29.000Z,7.5
2022-11-03T02:54:55.000Z,7.5
2022-11-03T02:55:19.000Z,7.5
2022-11-03T02:55:49.000Z,7.5
2022-11-03T02:56:24.000Z,7.3888888888888875
2022-11-03T02:56:54.000Z,7.3888888888888875
2022-11-03T02:57:29.000Z,7.3888888888888875
2022-11-03T02:57:51.000Z,7.3888888888888875
2022-11-03T02:58:14.000Z,7.3888888888888875
2022-11-03T02:58:49.000Z,7.3888888888888875
2022-11-03T02:59:19.000Z,7.3888888888888875
2022-11-03T02:59:49.000Z,7.3888888888888875
2022-11-03T03:00:24.000Z,7.3888888888888875
2022-11-03T03:00:54.000Z,7.6111111111111125
2022-11-03T03:01:38.000Z,7.3888888888888875
2022-11-03T03:02:08.000Z,7.3888888888888875
2022-11-03T03:02:38.000Z,7.5
2022-11-03T03:03:05.000Z,7.5
2022-11-03T03:03:32.000Z,7.5
2022-11-03T03:03:58.000Z,7.5
2022-11-03T03:04:23.000Z,7.5
2022-11-03T03:04:49.000Z,7.5
2022-11-03T03:05:18.000Z,7.3888888888888875
2022-11-03T03:05:45.000Z,7.3888888888888875
2022-11-03T03:06:12.000Z,7.3888888888888875
2022-11-03T03:06:38.000Z,7.3888888888888875
2022-11-03T03:07:05.000Z,7.3888888888888875
2022-11-03T03:07:33.000Z,7.3888888888888875
2022-11-03T03:07:58.000Z,7.3888888888888875
2022-11-03T03:08:23.000Z,7.3888888888888875
2022-11-03T03:08:54.000Z,7.3888888888888875
2022-11-03T03:09:29.000Z,7.5
2022-11-03T03:09:50.000Z,7.5
2022-11-03T03:10:14.000Z,7.5
2022-11-03T03:10:50.000Z,7.5
2022-11-03T03:11:19.000Z,7.5
2022-11-03T03:11:49.000Z,7.3888888888888875
2022-11-03T03:12:24.000Z,7.3888888888888875
2022-11-03T03:12:54.000Z,7.3888888888888875
2022-11-03T03:13:29.000Z,7.3888888888888875
2022-11-03T03:13:51.000Z,7.3888888888888875
2022-11-03T03:14:14.000Z,7.3888888888888875
2022-11-03T03:14:58.000Z,7.3888888888888875
2022-11-03T03:15:21.000Z,7.3888888888888875
2022-11-03T03:15:48.000Z,7.3888888888888875
2022-11-03T03:16:18.000Z,7.3888888888888875
2022-11-03T03:16:48.000Z,7.3888888888888875
2022-11-03T03:17:18.000Z,7.3888888888888875
2022-11-03T03:17:44.000Z,7.3888888888888875
2022-11-03T03:18:14.000Z,7.3888888888888875
2022-11-03T03:18:49.000Z,7.3888888888888875
2022-11-03T03:19:19.000Z,7.3888888888888875
2022-11-03T03:19:49.000Z,7.3888888888888875
2022-11-03T03:20:24.000Z,7.3888888888888875
2022-11-03T03:20:54.000Z,7.3888888888888875
2022-11-03T03:21:29.000Z,7.3888888888888875
2022-11-03T03:21:50.000Z,7.3888888888888875
2022-11-03T03:22:14.000Z,7.3888888888888875
2022-11-03T03:22:49.000Z,7.3888888888888875
2022-11-03T03:23:19.000Z,7.3888888888888875
2022-11-03T03:23:58.000Z,7.3888888888888875
2022-11-03T03:24:23.000Z,7.3888888888888875
2022-11-03T03:24:49.000Z,7.3888888888888875
2022-11-03T03:25:18.000Z,7.3888888888888875
2022-11-03T03:25:45.000Z,7.3888888888888875
2022-11-03T03:26:12.000Z,7.3888888888888875
2022-11-03T03:26:49.000Z,7.3888888888888875
2022-11-03T03:27:19.000Z,7.3888888888888875
2022-11-03T03:27:49.000Z,7.5
2022-11-03T03:28:24.000Z,7.5
2022-11-03T03:28:54.000Z,7.5
2022-11-03T03:29:29.000Z,7.5
2022-11-03T03:29:50.000Z,7.5
2022-11-03T03:30:14.000Z,7.5
2022-11-03T03:30:49.000Z,7.3888888888888875
2022-11-03T03:31:19.000Z,7.3888888888888875
2022-11-03T03:31:49.000Z,7.3888888888888875
2022-11-03T03:32:24.000Z,7.3888888888888875
2022-11-03T03:32:54.000Z,7.3888888888888875
2022-11-03T03:33:28.000Z,7.3888888888888875
2022-11-03T03:33:53.000Z,7.3888888888888875
2022-11-03T03:34:16.000Z,7.6111111111111125
2022-11-03T03:34:58.000Z,7.5
2022-11-03T03:35:22.000Z,7.5
2022-11-03T03:35:48.000Z,7.5
2022-11-03T03:36:24.000Z,7.5
2022-11-03T03:36:54.000Z,7.5
2022-11-03T03:37:29.000Z,7.277777777777778
2022-11-03T03:37:50.000Z,7.277777777777778
2022-11-03T03:38:14.000Z,7.277777777777778
2022-11-03T03:38:49.000Z,7.3888888888888875
2022-11-03T03:39:19.000Z,7.3888888888888875
2022-11-03T03:39:49.000Z,7.3888888888888875
2022-11-03T03:40:24.000Z,7.6111111111111125
2022-11-03T03:40:54.000Z,7.6111111111111125
2022-11-03T03:41:29.000Z,7.5
2022-11-03T03:41:51.000Z,7.5
2022-11-03T03:42:14.000Z,7.5
2022-11-03T03:42:48.000Z,7.5
2022-11-03T03:43:19.000Z,7.5
2022-11-03T03:43:58.000Z,7.5
2022-11-03T03:44:23.000Z,7.5
2022-11-03T03:44:53.000Z,7.5
2022-11-03T03:45:29.000Z,7.5
2022-11-03T03:45:52.000Z,7.5
2022-11-03T03:46:14.000Z,7.5
2022-11-03T03:46:49.000Z,7.277777777777778
2022-11-03T03:47:19.000Z,7.277777777777778
2022-11-03T03:47:49.000Z,7.5
2022-11-03T03:48:24.000Z,7.5
2022-11-03T03:48:54.000Z,7.5
2022-11-03T03:49:29.000Z,7.5
2022-11-03T03:49:50.000Z,7.277777777777778
2022-11-03T03:50:14.000Z,7.277777777777778
2022-11-03T03:50:49.000Z,7.6111111111111125
2022-11-03T03:51:19.000Z,7.6111111111111125
2022-11-03T03:51:49.000Z,7.3888888888888875
2022-11-03T03:52:24.000Z,7.3888888888888875
2022-11-03T03:53:03.000Z,7.3888888888888875
2022-11-03T03:53:29.000Z,7.3888888888888875
2022-11-03T03:53:51.000Z,7.3888888888888875
2022-11-03T03:54:14.000Z,7.3888888888888875
2022-11-03T03:54:49.000Z,7.3888888888888875
2022-11-03T03:55:19.000Z,7.3888888888888875
2022-11-03T03:55:49.000Z,7.3888888888888875
2022-11-03T03:56:24.000Z,7.3888888888888875
2022-11-03T03:56:54.000Z,7.3888888888888875
2022-11-03T03:57:29.000Z,7.3888888888888875
2022-11-03T03:57:51.000Z,7.3888888888888875
2022-11-03T03:58:14.000Z,7.3888888888888875
2022-11-03T03:58:49.000Z,7.3888888888888875
2022-11-03T03:59:19.000Z,7.3888888888888875
2022-11-03T04:00:03.000Z,7.3888888888888875
2022-11-03T04:00:20.000Z,7.5
2022-11-03T04:00:39.000Z,7.5
2022-11-03T04:01:09.000Z,7.5
2022-11-03T04:01:44.000Z,7.5
2022-11-03T04:02:14.000Z,7.722222222222222
2022-11-03T04:02:49.000Z,7.6111111111111125
2022-11-03T04:03:19.000Z,7.6111111111111125
2022-11-03T04:03:49.000Z,7.3888888888888875
2022-11-03T04:04:24.000Z,7.3888888888888875
2022-11-03T04:04:54.000Z,7.6111111111111125
2022-11-03T04:05:29.000Z,7.6111111111111125
2022-11-03T04:05:50.000Z,7.6111111111111125
2022-11-03T04:06:14.000Z,7.6111111111111125
2022-11-03T04:06:48.000Z,7.6111111111111125
2022-11-03T04:07:16.000Z,7.6111111111111125
2022-11-03T04:07:43.000Z,7.6111111111111125
2022-11-03T04:08:18.000Z,7.6111111111111125
2022-11-03T04:08:40.000Z,7.6111111111111125
2022-11-03T04:09:03.000Z,7.6111111111111125
2022-11-03T04:09:30.000Z,7.6111111111111125
2022-11-03T04:09:53.000Z,7.6111111111111125
2022-11-03T04:10:16.000Z,7.6111111111111125
2022-11-03T04:10:44.000Z,7.5
2022-11-03T04:11:10.000Z,7.5
2022-11-03T04:11:35.000Z,7.5
2022-11-03T04:12:04.000Z,7.5
2022-11-03T04:12:24.000Z,7.5
2022-11-03T04:12:54.000Z,7.5
2022-11-03T04:13:29.000Z,7.5
2022-11-03T04:13:50.000Z,7.5
2022-11-03T04:14:14.000Z,7.5
2022-11-03T04:14:49.000Z,7.6111111111111125
2022-11-03T04:15:19.000Z,7.6111111111111125
2022-11-03T04:15:49.000Z,7.6111111111111125
2022-11-03T04:16:24.000Z,7.6111111111111125
2022-11-03T04:16:54.000Z,7.6111111111111125
2022-11-03T04:17:30.000Z,7.6111111111111125
2022-11-03T04:17:49.000Z,7.6111111111111125
2022-11-03T04:18:14.000Z,7.5
2022-11-03T04:18:58.000Z,7.5
2022-11-03T04:19:21.000Z,7.5
2022-11-03T04:19:48.000Z,7.5
2022-11-03T04:20:20.000Z,7.5
2022-11-03T04:20:48.000Z,7.5
2022-11-03T04:21:18.000Z,7.5
2022-11-03T04:21:45.000Z,7.5
2022-11-03T04:22:12.000Z,7.5
2022-11-03T04:22:38.000Z,7.5
2022-11-03T04:23:05.000Z,7.5
2022-11-03T04:23:34.000Z,7.5
2022-11-03T04:24:09.000Z,7.5
2022-11-03T04:24:39.000Z,7.5
2022-11-03T04:25:09.000Z,7.5
2022-11-03T04:25:44.000Z,7.5
2022-11-03T04:26:14.000Z,7.5
2022-11-03T04:26:49.000Z,7.5
2022-11-03T04:27:19.000Z,7.5
2022-11-03T04:27:49.000Z,7.5
2022-11-03T04:28:24.000Z,7.6111111111111125
2022-11-03T04:28:54.000Z,7.6111111111111125
2022-11-03T04:29:38.000Z,7.6111111111111125
2022-11-03T04:30:08.000Z,7.6111111111111125
2022-11-03T04:30:38.000Z,7.6111111111111125
2022-11-03T04:31:05.000Z,7.6111111111111125
2022-11-03T04:31:35.000Z,7.6111111111111125
2022-11-03T04:31:58.000Z,7.6111111111111125
2022-11-03T04:32:23.000Z,7.6111111111111125
2022-11-03T04:32:54.000Z,7.6111111111111125
2022-11-03T04:33:29.000Z,7.5
2022-11-03T04:33:50.000Z,7.5
2022-11-03T04:34:14.000Z,7.5
2022-11-03T04:34:49.000Z,7.5
2022-11-03T04:35:19.000Z,7.5
2022-11-03T04:35:49.000Z,7.5
2022-11-03T04:36:24.000Z,7.5
2022-11-03T04:36:54.000Z,7.722222222222222
2022-11-03T04:37:29.000Z,7.722222222222222
2022-11-03T04:37:50.000Z,7.722222222222222
2022-11-03T04:38:14.000Z,7.5
2022-11-03T04:38:58.000Z,7.5
2022-11-03T04:39:21.000Z,7.5
2022-11-03T04:39:48.000Z,7.5
2022-11-03T04:40:18.000Z,7.5
2022-11-03T04:40:48.000Z,7.5
2022-11-03T04:41:29.000Z,7.5
2022-11-03T04:41:52.000Z,7.5
2022-11-03T04:42:12.000Z,7.5
2022-11-03T04:42:29.000Z,7.5
2022-11-03T04:42:55.000Z,7.5
2022-11-03T04:43:19.000Z,7.722222222222222
2022-11-03T04:43:49.000Z,7.5